Time;durP1;ratioP1;P1;durP2;ratioP2;P2;SDS_P1;SDS_P2;PMS_P1;PMS_P2;Temp;Humidity;BMP_temperature;BMP_pressure;BME280_temperature;BME280_humidity;BME280_pressure;Samples;Min_cycle;Max_cycle;Signal;HPM_P1;HPM_P2
2021/07/19 02:45:10;;;;;;;6.88;3.30;;;22.10;92.30;;;;;;5754868;24;20086;31
2021/07/19 02:47:45;;;;;;;6.47;3.08;;;22.10;92.20;;;;;;4704178;30;20065;-79
2021/07/19 02:50:17;;;;;;;11.93;3.90;;;22.10;92.40;;;;;;4715271;30;20090;-80
2021/07/19 02:52:46;;;;;;;8.70;3.00;;;22.10;92.20;;;;;;4706320;30;20017;-79
2021/07/19 02:55:17;;;;;;;7.07;4.18;;;22.10;92.10;;;;;;4706882;30;20041;-81
2021/07/19 02:57:46;;;;;;;10.88;3.47;;;22.00;92.20;;;;;;4720567;30;20085;-79
2021/07/19 03:00:15;;;;;;;9.80;3.50;;;22.00;92.30;;;;;;4720539;30;20054;-79
2021/07/19 03:02:56;;;;;;;10.30;3.80;;;22.00;92.30;;;;;;4707260;30;20043;-81
2021/07/19 03:05:27;;;;;;;7.32;3.45;;;22.10;92.40;;;;;;4705610;30;20037;-81
2021/07/19 03:07:58;;;;;;;10.20;3.67;;;22.10;92.30;;;;;;4692562;30;20045;-81
2021/07/19 03:10:49;;;;;;;12.00;4.20;;;22.00;92.40;;;;;;4723117;30;20037;-81
2021/07/19 03:13:24;;;;;;;15.30;5.20;;;22.00;92.40;;;;;;4708810;30;20056;-80
2021/07/19 03:15:54;;;;;;;16.30;4.78;;;22.00;92.30;;;;;;4716204;30;20040;-79
2021/07/19 03:18:22;;;;;;;6.28;3.70;;;22.00;92.20;;;;;;4704604;30;20040;-79
2021/07/19 03:20:50;;;;;;;10.00;3.63;;;22.00;92.30;;;;;;4720368;30;20247;-80
2021/07/19 03:23:19;;;;;;;12.25;4.32;;;22.00;92.20;;;;;;4720509;30;20021;-80
2021/07/19 03:25:45;;;;;;;11.02;4.18;;;22.00;92.40;;;;;;4720733;30;20049;-81
2021/07/19 03:28:13;;;;;;;9.25;4.35;;;22.00;92.30;;;;;;4706308;30;20033;-81
2021/07/19 03:30:43;;;;;;;8.93;4.03;;;22.00;92.30;;;;;;4705736;30;20044;-81
2021/07/19 03:33:11;;;;;;;10.68;3.85;;;22.00;92.30;;;;;;4703933;30;20280;-81
2021/07/19 03:35:38;;;;;;;;;;;22.00;92.30;;;;;;4720616;30;20041;-80
2021/07/19 03:38:05;;;;;;;10.45;4.32;;;22.00;92.20;;;;;;4720712;30;19910;-80
2021/07/19 03:40:53;;;;;;;8.13;3.90;;;21.90;92.40;;;;;;4708146;30;20045;-79
2021/07/19 03:43:22;;;;;;;7.28;3.70;;;21.90;92.60;;;;;;4720967;30;20064;-81
2021/07/19 03:45:48;;;;;;;6.03;3.88;;;21.90;92.10;;;;;;4720572;30;20067;-80
2021/07/19 03:48:18;;;;;;;6.90;4.47;;;22.00;92.20;;;;;;4720936;30;20052;-81
2021/07/19 03:50:48;;;;;;;11.55;3.50;;;22.00;92.10;;;;;;4720824;30;20037;-81
2021/07/19 03:53:15;;;;;;;10.73;3.42;;;22.00;91.90;;;;;;4720805;30;20106;-81
2021/07/19 03:55:44;;;;;;;6.47;3.55;;;22.10;91.50;;;;;;4708360;30;20037;-80
2021/07/19 03:58:12;;;;;;;15.48;3.92;;;22.10;91.30;;;;;;4723833;30;20040;-81
2021/07/19 04:00:43;;;;;;;8.27;3.50;;;22.20;91.30;;;;;;4724058;30;20024;-81
2021/07/19 04:06:03;;;;;;;13.85;4.60;;;22.20;91.50;;;;;;4654547;30;20178;-80
2021/07/19 04:08:42;;;;;;;11.23;4.80;;;22.20;91.70;;;;;;4654845;30;20215;-81
2021/07/19 04:11:09;;;;;;;14.50;3.47;;;22.20;91.50;;;;;;4654285;30;20081;-81
2021/07/19 04:13:38;;;;;;;13.50;3.50;;;22.10;91.40;;;;;;4655004;30;20035;-81
2021/07/19 04:16:06;;;;;;;9.55;3.30;;;22.20;91.10;;;;;;4657957;30;20045;-81
2021/07/19 04:18:33;;;;;;;8.05;4.40;;;22.30;91.30;;;;;;4653630;30;20039;-81
2021/07/19 04:20:59;;;;;;;6.50;4.32;;;22.40;91.20;;;;;;4654581;30;20043;-81
2021/07/19 04:23:31;;;;;;;9.98;3.17;;;22.40;91.10;;;;;;4654450;30;20049;-82
2021/07/19 04:26:15;;;;;;;9.93;3.70;;;22.40;91.10;;;;;;4654102;30;20035;-80
2021/07/19 04:28:44;;;;;;;10.25;4.43;;;22.50;90.80;;;;;;4655429;30;20035;-81
2021/07/19 04:31:16;;;;;;;11.50;4.68;;;22.50;91.00;;;;;;4653898;30;20078;-81
2021/07/19 04:33:49;;;;;;;8.13;4.47;;;22.40;90.90;;;;;;4654710;30;20106;-81
2021/07/19 04:36:19;;;;;;;7.75;3.80;;;22.40;91.00;;;;;;4660830;30;20050;-81
2021/07/19 04:38:46;;;;;;;13.15;4.60;;;22.40;91.10;;;;;;4653730;30;20035;-81
2021/07/19 04:41:19;;;;;;;11.38;4.03;;;22.40;91.00;;;;;;4653397;30;20059;-80
2021/07/19 04:43:45;;;;;;;8.95;3.70;;;22.50;91.10;;;;;;4718692;30;20178;-81
2021/07/19 04:46:11;;;;;;;12.23;4.60;;;22.40;90.80;;;;;;4724658;30;20071;-81
2021/07/19 04:48:38;;;;;;;9.75;4.53;;;22.40;91.10;;;;;;4723999;30;20036;-82
2021/07/19 04:51:04;;;;;;;21.02;10.02;;;22.40;91.10;;;;;;4723400;30;20060;-81
2021/07/19 04:53:30;;;;;;;10.98;4.50;;;22.50;91.10;;;;;;4722639;30;20033;-81
2021/07/19 04:55:58;;;;;;;7.25;3.75;;;22.60;90.90;;;;;;4708471;30;20167;-81
2021/07/19 04:58:27;;;;;;;10.50;4.55;;;22.60;90.80;;;;;;4722950;30;20054;-81
2021/07/19 05:01:05;;;;;;;10.80;4.10;;;22.70;90.60;;;;;;4708475;30;20021;-80
2021/07/19 05:03:37;;;;;;;10.48;3.42;;;22.70;90.30;;;;;;4708925;30;20236;-81
2021/07/19 05:06:04;;;;;;;11.75;3.58;;;22.70;90.20;;;;;;4722110;30;20048;-80
2021/07/19 05:08:31;;;;;;;7.45;3.25;;;22.70;90.00;;;;;;4720168;30;20383;-80
2021/07/19 05:10:57;;;;;;;;;;;22.70;90.10;;;;;;4720991;30;20344;-79
2021/07/19 05:13:25;;;;;;;7.57;3.80;;;22.80;89.30;;;;;;4722009;30;19911;-80
2021/07/19 05:15:51;;;;;;;6.50;3.20;;;22.80;89.60;;;;;;4722187;30;20384;-79
2021/07/19 05:18:18;;;;;;;10.50;3.22;;;22.90;89.60;;;;;;4722166;30;20040;-80
2021/07/19 05:20:44;;;;;;;7.85;3.13;;;23.00;88.50;;;;;;4706212;30;20041;-80
2021/07/19 05:23:11;;;;;;;7.28;3.45;;;23.00;88.50;;;;;;4706326;30;20105;-80
2021/07/19 05:25:37;;;;;;;14.63;3.88;;;23.10;87.70;;;;;;4720834;30;20033;-80
2021/07/19 05:28:12;;;;;;;8.95;2.90;;;23.20;88.20;;;;;;4720906;30;20037;-80
2021/07/19 05:30:43;;;;;;;5.63;3.25;;;23.20;86.80;;;;;;4721099;30;20033;-80
2021/07/19 05:33:09;;;;;;;8.77;2.97;;;23.30;86.80;;;;;;4706145;30;20037;-80
2021/07/19 05:35:36;;;;;;;7.15;3.30;;;23.30;86.50;;;;;;4698658;30;20037;-80
2021/07/19 05:38:03;;;;;;;;;;;23.40;85.20;;;;;;4718421;30;20044;-80
2021/07/19 05:40:31;;;;;;;10.00;2.90;;;23.70;84.00;;;;;;4703563;30;19986;-77
2021/07/19 05:42:58;;;;;;;7.07;2.95;;;24.20;82.10;;;;;;4719439;30;20037;-77
2021/07/19 05:45:24;;;;;;;5.50;2.95;;;24.90;79.90;;;;;;4729083;30;20049;-77
2021/07/19 05:47:50;;;;;;;4.13;2.90;;;25.50;76.80;;;;;;4715445;30;20056;-77
2021/07/19 05:50:16;;;;;;;14.68;3.13;;;25.90;76.00;;;;;;4716327;30;20029;-79
2021/07/19 05:52:43;;;;;;;12.85;3.28;;;26.20;74.00;;;;;;4715867;30;20029;-78
2021/07/19 05:55:09;;;;;;;7.03;2.88;;;26.30;73.20;;;;;;4716225;30;20041;-78
2021/07/19 05:57:35;;;;;;;9.48;2.40;;;26.50;72.10;;;;;;4715869;30;20041;-77
2021/07/19 06:00:04;;;;;;;6.28;2.85;;;26.60;71.70;;;;;;4704655;30;20041;-79
2021/07/19 06:02:40;;;;;;;10.40;2.75;;;26.60;72.00;;;;;;4721983;30;20060;-79
2021/07/19 06:05:06;;;;;;;6.18;2.50;;;26.60;71.30;;;;;;4707848;30;20037;-79
2021/07/19 06:07:33;;;;;;;5.18;2.53;;;26.50;71.50;;;;;;4721664;30;20037;-79
2021/07/19 06:09:59;;;;;;;;;;;26.40;71.40;;;;;;4720041;30;20151;-78
2021/07/19 06:12:25;;;;;;;5.00;2.67;;;26.30;71.90;;;;;;4705183;30;19911;-78
2021/07/19 06:14:51;;;;;;;7.32;2.47;;;26.10;72.30;;;;;;4720349;30;20104;-78
2021/07/19 06:17:17;;;;;;;10.48;3.67;;;26.00;73.00;;;;;;4715854;30;20232;-77
2021/07/19 06:19:43;;;;;;;4.57;3.00;;;26.00;73.00;;;;;;4734984;30;20048;-79
2021/07/19 06:22:10;;;;;;;11.50;2.90;;;25.90;73.70;;;;;;4720815;30;20037;-78
2021/07/19 06:24:40;;;;;;;11.30;2.78;;;25.80;74.10;;;;;;4720888;30;20059;-78
2021/07/19 06:27:09;;;;;;;6.65;2.55;;;25.90;74.40;;;;;;4717737;30;20044;-78
2021/07/19 06:29:35;;;;;;;7.38;2.70;;;25.90;74.40;;;;;;4719996;30;20028;-78
2021/07/19 06:32:01;;;;;;;14.88;3.53;;;25.90;73.50;;;;;;4719265;30;20030;-78
2021/07/19 06:34:30;;;;;;;5.93;2.72;;;26.00;74.50;;;;;;4719703;30;20036;-78
2021/07/19 06:36:56;;;;;;;12.27;2.80;;;26.20;74.40;;;;;;4720022;30;20077;-78
2021/07/19 06:39:22;;;;;;;13.18;2.42;;;26.30;73.50;;;;;;4721789;30;20025;-79
2021/07/19 06:41:48;;;;;;;16.73;3.33;;;26.50;73.00;;;;;;4718900;30;20253;-78
2021/07/19 06:44:14;;;;;;;5.60;2.40;;;26.60;71.70;;;;;;4718728;30;20037;-77
2021/07/19 06:46:40;;;;;;;11.13;2.53;;;26.60;72.40;;;;;;4735135;30;20112;-79
2021/07/19 06:49:06;;;;;;;7.63;2.50;;;26.70;71.20;;;;;;4705493;30;20025;-78
2021/07/19 06:51:32;;;;;;;7.30;3.33;;;26.70;71.50;;;;;;4719987;30;20047;-79
2021/07/19 06:53:57;;;;;;;7.63;2.80;;;26.80;71.30;;;;;;4734947;30;20033;-79
2021/07/19 06:56:24;;;;;;;15.43;2.72;;;27.00;70.80;;;;;;4720418;30;20091;-78
2021/07/19 06:58:50;;;;;;;8.45;2.83;;;27.20;70.70;;;;;;4710742;30;20025;-79
2021/07/19 07:01:16;;;;;;;6.73;2.70;;;27.20;69.10;;;;;;4717811;30;20124;-78
2021/07/19 07:03:42;;;;;;;9.68;2.55;;;27.10;69.00;;;;;;4713910;30;20044;-79
2021/07/19 07:06:08;;;;;;;9.98;2.72;;;27.10;69.00;;;;;;4714972;30;20065;-78
2021/07/19 07:08:34;;;;;;;6.72;3.00;;;26.90;69.40;;;;;;4713257;30;20278;-78
2021/07/19 07:11:00;;;;;;;9.07;2.55;;;27.00;69.90;;;;;;4713247;30;20033;-77
2021/07/19 07:13:26;;;;;;;5.23;2.47;;;27.20;70.40;;;;;;4728094;30;20105;-77
2021/07/19 07:15:52;;;;;;;5.53;2.63;;;27.30;70.00;;;;;;4712421;30;20029;-79
2021/07/19 07:18:17;;;;;;;8.45;2.58;;;27.20;69.90;;;;;;4708508;30;20037;-77
2021/07/19 07:20:43;;;;;;;8.93;3.10;;;27.20;69.50;;;;;;4713458;30;20327;-77
2021/07/19 07:23:09;;;;;;;7.40;2.63;;;27.10;70.40;;;;;;4728218;30;20055;-77
2021/07/19 07:25:35;;;;;;;15.48;2.70;;;27.20;71.50;;;;;;4713052;30;20048;-77
2021/07/19 07:28:01;;;;;;;7.93;2.90;;;27.20;70.00;;;;;;4712907;30;20036;-77
2021/07/19 07:30:27;;;;;;;14.70;3.10;;;27.20;71.80;;;;;;4713254;30;20126;-77
2021/07/19 07:32:53;;;;;;;11.25;3.20;;;27.20;69.80;;;;;;4713398;30;20201;-77
2021/07/19 07:35:20;;;;;;;12.00;2.53;;;27.30;70.40;;;;;;4713528;30;20354;-77
2021/07/19 07:37:46;;;;;;;11.43;2.28;;;27.40;69.60;;;;;;4712569;30;20245;-77
2021/07/19 07:40:15;;;;;;;9.37;2.93;;;27.50;69.80;;;;;;4727068;30;20104;-77
2021/07/19 07:42:41;;;;;;;7.47;3.05;;;27.80;70.90;;;;;;4728707;30;20028;-77
2021/07/19 07:45:08;;;;;;;5.90;3.20;;;28.00;70.00;;;;;;4701147;30;20042;-78
2021/07/19 07:47:35;;;;;;;8.35;3.47;;;28.20;69.40;;;;;;4729969;30;20041;-78
2021/07/19 07:50:01;;;;;;;14.98;3.33;;;28.20;67.90;;;;;;4713651;30;20033;-77
2021/07/19 07:52:27;;;;;;;13.55;3.10;;;28.30;68.90;;;;;;4714405;30;20095;-77
2021/07/19 07:54:53;;;;;;;11.13;3.17;;;28.50;68.20;;;;;;4714886;30;20045;-78
2021/07/19 07:57:18;;;;;;;10.60;3.43;;;28.50;65.50;;;;;;4701255;30;20098;-77
2021/07/19 07:59:44;;;;;;;7.85;2.95;;;28.30;65.90;;;;;;4714277;30;20108;-77
2021/07/19 08:02:11;;;;;;;8.20;2.45;;;28.10;67.40;;;;;;4714899;30;20040;-77
2021/07/19 08:04:37;;;;;;;8.60;3.10;;;27.90;68.00;;;;;;4730153;30;20091;-77
2021/07/19 08:07:04;;;;;;;7.63;2.60;;;27.90;67.40;;;;;;4713416;30;20257;-77
2021/07/19 08:09:30;;;;;;;9.15;2.80;;;28.10;67.10;;;;;;4714342;30;20075;-77
2021/07/19 08:11:56;;;;;;;8.37;3.07;;;28.10;67.80;;;;;;4718871;30;20118;-78
2021/07/19 08:14:23;;;;;;;10.85;2.85;;;28.10;67.70;;;;;;4731750;30;20033;-78
2021/07/19 08:16:49;;;;;;;10.35;3.28;;;28.20;67.10;;;;;;4712468;30;20037;-77
2021/07/19 08:19:15;;;;;;;7.07;2.77;;;28.30;67.50;;;;;;4712961;30;20056;-77
2021/07/19 08:21:41;;;;;;;10.53;3.60;;;28.50;66.30;;;;;;4711407;30;20040;-78
2021/07/19 08:24:08;;;;;;;13.63;3.72;;;28.60;67.30;;;;;;4715482;30;20271;-77
2021/07/19 08:26:34;;;;;;;9.50;3.72;;;28.60;67.50;;;;;;4701036;30;20063;-78
2021/07/19 08:29:01;;;;;;;9.20;5.22;;;28.30;66.70;;;;;;4716271;30;20287;-77
2021/07/19 08:31:28;;;;;;;9.20;3.22;;;28.20;67.20;;;;;;4714804;30;20060;-77
2021/07/19 08:33:55;;;;;;;5.72;2.97;;;28.30;67.90;;;;;;4731085;30;20060;-77
2021/07/19 08:36:21;;;;;;;15.77;3.67;;;28.40;67.70;;;;;;4715497;30;20033;-77
2021/07/19 08:38:47;;;;;;;7.07;2.93;;;28.50;66.90;;;;;;4715393;30;20299;-77
2021/07/19 08:41:14;;;;;;;10.90;2.53;;;28.40;66.30;;;;;;4715358;30;20037;-78
2021/07/19 08:43:41;;;;;;;4.68;3.05;;;28.20;66.50;;;;;;4719079;30;20045;-78
2021/07/19 08:46:09;;;;;;;10.25;3.03;;;28.10;66.60;;;;;;4734065;30;20049;-77
2021/07/19 08:48:35;;;;;;;11.40;3.28;;;28.20;67.50;;;;;;4722749;30;20079;-78
2021/07/19 08:51:02;;;;;;;14.93;3.33;;;28.60;68.90;;;;;;4727160;30;20101;-77
2021/07/19 08:53:31;;;;;;;9.70;2.70;;;28.90;68.00;;;;;;4719334;30;20037;-78
2021/07/19 08:55:57;;;;;;;13.38;3.45;;;29.00;62.50;;;;;;4729721;30;20029;-77
2021/07/19 08:58:25;;;;;;;12.57;3.13;;;28.80;60.60;;;;;;4719242;30;20040;-77
2021/07/19 09:00:53;;;;;;;5.85;3.17;;;28.70;61.50;;;;;;4730602;30;20041;-80
2021/07/19 09:03:19;;;;;;;9.27;3.53;;;28.70;62.20;;;;;;4736282;30;20025;-79
2021/07/19 09:05:47;;;;;;;13.80;3.50;;;28.70;61.20;;;;;;4721223;30;20041;-79
2021/07/19 09:08:13;;;;;;;12.90;3.08;;;28.60;60.60;;;;;;4721540;30;20268;-79
2021/07/19 09:10:39;;;;;;;7.30;2.93;;;28.50;61.00;;;;;;4736083;30;20029;-78
2021/07/19 09:13:07;;;;;;;11.30;3.20;;;28.40;60.60;;;;;;4706721;30;20086;-78
2021/07/19 09:15:36;;;;;;;9.52;3.10;;;28.60;61.60;;;;;;4719985;30;20046;-78
2021/07/19 09:18:07;;;;;;;9.35;3.35;;;28.70;59.30;;;;;;4717340;30;20325;-78
2021/07/19 09:20:35;;;;;;;9.35;3.08;;;28.80;58.80;;;;;;4719689;30;20064;-77
2021/07/19 09:23:01;;;;;;;6.00;2.97;;;28.80;58.20;;;;;;4720780;30;20201;-78
2021/07/19 09:25:27;;;;;;;12.77;4.00;;;29.00;57.00;;;;;;4720075;30;20048;-78
2021/07/19 09:27:54;;;;;;;10.55;3.83;;;29.10;57.90;;;;;;4720985;30;20029;-78
2021/07/19 09:30:26;;;;;;;12.18;3.33;;;29.40;58.70;;;;;;4720131;30;20055;-78
2021/07/19 09:32:58;;;;;;;18.98;4.47;;;29.60;54.90;;;;;;4719350;30;20040;-78
2021/07/19 09:35:24;;;;;;;9.80;3.80;;;29.40;53.70;;;;;;4718506;30;20083;-78
2021/07/19 09:37:52;;;;;;;8.38;3.80;;;29.10;54.30;;;;;;4719740;30;20040;-77
2021/07/19 09:40:30;;;;;;;10.65;3.75;;;29.00;56.70;;;;;;4705830;30;20045;-78
2021/07/19 09:42:56;;;;;;;9.15;3.67;;;29.00;56.70;;;;;;4714900;30;20037;-78
2021/07/19 09:45:24;;;;;;;7.88;3.97;;;29.30;55.10;;;;;;4736216;30;20041;-79
2021/07/19 09:47:58;;;;;;;12.35;3.72;;;29.40;55.00;;;;;;4712129;30;20049;-79
2021/07/19 09:50:23;;;;;;;13.95;4.05;;;29.30;54.80;;;;;;4719009;30;20025;-79
2021/07/19 09:52:49;;;;;;;13.03;3.93;;;29.50;55.00;;;;;;4718988;30;20040;-80
2021/07/19 09:55:25;;;;;;;12.37;4.20;;;29.60;54.90;;;;;;4719593;30;20037;-79
2021/07/19 09:57:55;;;;;;;11.50;4.22;;;29.80;54.70;;;;;;4717067;30;20041;-79
2021/07/19 10:00:25;;;;;;;11.75;3.85;;;29.90;51.40;;;;;;4706846;30;20058;-79
2021/07/19 10:02:51;;;;;;;9.43;3.90;;;29.70;51.90;;;;;;4736657;30;20035;-79
2021/07/19 10:05:31;;;;;;;16.70;4.47;;;29.60;51.70;;;;;;4736661;30;20056;-79
2021/07/19 10:08:01;;;;;;;13.80;4.63;;;29.30;51.70;;;;;;4737148;30;20201;-79
2021/07/19 10:10:39;;;;;;;15.50;4.35;;;29.00;52.10;;;;;;4721578;30;20041;-78
2021/07/19 10:13:07;;;;;;;8.63;3.50;;;29.20;53.50;;;;;;4721685;30;20036;-79
2021/07/19 10:15:35;;;;;;;8.68;3.70;;;29.40;53.70;;;;;;4720444;30;20033;-78
2021/07/19 10:18:08;;;;;;;10.93;3.67;;;29.40;52.40;;;;;;4723836;30;20084;-78
2021/07/19 10:20:36;;;;;;;8.52;3.85;;;29.10;51.80;;;;;;4721364;30;20049;-78
2021/07/19 10:23:03;;;;;;;15.57;4.63;;;29.20;51.30;;;;;;4721414;30;20025;-79
2021/07/19 10:25:29;;;;;;;10.27;3.97;;;29.20;51.30;;;;;;4721402;30;20044;-78
2021/07/19 10:27:55;;;;;;;14.63;4.30;;;29.20;52.70;;;;;;4721448;30;20033;-78
2021/07/19 10:30:21;;;;;;;7.40;4.45;;;29.40;53.10;;;;;;4721965;30;20025;-79
2021/07/19 10:32:48;;;;;;;21.43;4.73;;;29.50;54.50;;;;;;4720674;30;20055;-78
2021/07/19 10:35:15;;;;;;;8.27;4.47;;;29.60;52.70;;;;;;4719878;30;20129;-78
2021/07/19 10:37:44;;;;;;;15.38;4.50;;;29.80;51.80;;;;;;4720091;30;20041;-78
2021/07/19 10:40:16;;;;;;;12.63;4.90;;;29.90;53.60;;;;;;4717954;30;20048;-78
2021/07/19 10:42:43;;;;;;;19.23;4.70;;;30.00;51.30;;;;;;4729104;30;20112;-78
2021/07/19 10:45:19;;;;;;;15.82;4.75;;;29.90;50.30;;;;;;4706315;30;20053;-78
2021/07/19 10:47:53;;;;;;;13.10;4.13;;;29.90;51.00;;;;;;4702259;30;20042;-78
2021/07/19 10:50:26;;;;;;;16.98;4.72;;;29.90;50.90;;;;;;4715088;30;20029;-78
2021/07/19 10:52:54;;;;;;;17.02;7.43;;;29.90;48.50;;;;;;4701734;30;20030;-76
2021/07/19 10:55:29;;;;;;;15.48;5.95;;;29.90;50.20;;;;;;4680727;30;20038;-76
2021/07/19 10:58:08;;;;;;;15.35;5.38;;;29.90;51.00;;;;;;4716885;30;20049;-76
2021/07/19 11:00:44;;;;;;;9.30;4.82;;;30.00;48.50;;;;;;4705014;30;20080;-76
2021/07/19 11:03:11;;;;;;;11.90;4.78;;;30.10;49.90;;;;;;4708241;30;20056;-75
2021/07/19 11:05:42;;;;;;;16.85;4.65;;;30.30;49.80;;;;;;4709228;30;20041;-76
2021/07/19 11:08:23;;;;;;;11.40;4.88;;;30.60;49.70;;;;;;4709616;30;20033;-76
2021/07/19 11:10:51;;;;;;;16.17;4.70;;;30.70;47.50;;;;;;4694023;30;20045;-76
2021/07/19 11:13:25;;;;;;;11.38;5.03;;;30.50;47.70;;;;;;4708298;30;20102;-75
2021/07/19 11:15:51;;;;;;;10.32;5.05;;;30.00;48.50;;;;;;4708519;30;20038;-76
2021/07/19 11:18:19;;;;;;;12.37;4.87;;;30.00;49.00;;;;;;4708436;30;20022;-76
2021/07/19 11:20:46;;;;;;;10.07;4.47;;;30.10;50.60;;;;;;4693897;30;20112;-77
2021/07/19 11:23:13;;;;;;;9.35;4.65;;;30.20;48.70;;;;;;4708351;30;20041;-76
2021/07/19 11:25:46;;;;;;;;;;;30.40;50.30;;;;;;4694422;30;20060;-77
2021/07/19 11:28:20;;;;;;;12.18;5.20;;;30.50;48.10;;;;;;4708505;30;19933;-77
2021/07/19 11:31:12;;;;;;;9.43;4.30;;;30.40;46.90;;;;;;4693907;30;20040;-76
2021/07/19 11:33:43;;;;;;;13.48;5.03;;;30.40;47.00;;;;;;4708275;30;20038;-76
2021/07/19 11:36:28;;;;;;;20.23;5.43;;;30.50;49.80;;;;;;4709266;30;20104;-76
2021/07/19 11:39:00;;;;;;;17.45;4.93;;;30.60;47.70;;;;;;4699105;30;20041;-76
2021/07/19 11:41:34;;;;;;;9.57;4.80;;;30.60;47.30;;;;;;4693562;30;20029;-76
2021/07/19 11:44:04;;;;;;;12.60;5.75;;;30.80;48.30;;;;;;4703160;30;20109;-76
2021/07/19 11:46:39;;;;;;;11.15;5.10;;;31.00;48.30;;;;;;4687772;30;20045;-76
2021/07/19 11:49:09;;;;;;;18.83;5.78;;;31.20;47.20;;;;;;4708471;30;20022;-76
2021/07/19 11:51:39;;;;;;;14.57;6.07;;;31.10;46.80;;;;;;4706783;30;20026;-76
2021/07/19 11:54:08;;;;;;;13.63;5.53;;;31.10;47.30;;;;;;4706292;30;20029;-76
2021/07/19 11:56:34;;;;;;;10.57;5.50;;;31.00;46.80;;;;;;4705052;30;20061;-76
2021/07/19 11:59:02;;;;;;;12.93;5.83;;;30.90;46.50;;;;;;4702647;30;20057;-76
2021/07/19 12:01:31;;;;;;;13.30;5.32;;;30.80;46.30;;;;;;4705829;30;20151;-76
2021/07/19 12:03:59;;;;;;;15.02;5.20;;;30.90;48.50;;;;;;4707671;30;20198;-75
2021/07/19 12:06:26;;;;;;;20.15;5.63;;;31.30;49.20;;;;;;4708759;30;20052;-75
2021/07/19 12:09:05;;;;;;;9.40;5.32;;;31.50;46.90;;;;;;4708617;30;20040;-76
2021/07/19 12:11:32;;;;;;;13.57;5.80;;;31.60;46.10;;;;;;4714669;30;20085;-76
2021/07/19 12:14:00;;;;;;;17.60;6.60;;;31.60;47.10;;;;;;4708448;30;20049;-75
2021/07/19 12:16:41;;;;;;;16.17;6.57;;;31.60;45.70;;;;;;4702291;30;20034;-76
2021/07/19 12:19:08;;;;;;;13.68;6.35;;;31.50;47.60;;;;;;4706677;30;20037;-75
2021/07/19 12:21:46;;;;;;;16.65;5.75;;;31.60;47.50;;;;;;4710601;30;20104;-76
2021/07/19 12:24:14;;;;;;;14.07;6.28;;;31.80;47.70;;;;;;4709837;30;20041;-75
2021/07/19 12:26:46;;;;;;;10.95;6.60;;;31.70;45.70;;;;;;4725369;30;20076;-75
2021/07/19 12:29:13;;;;;;;11.77;6.07;;;31.60;46.00;;;;;;4710746;30;20036;-75
2021/07/19 12:31:50;;;;;;;14.15;6.85;;;31.30;46.00;;;;;;4708900;30;20104;-76
2021/07/19 12:34:25;;;;;;;13.88;5.80;;;30.90;46.30;;;;;;4708466;30;20049;-75
2021/07/19 12:36:53;;;;;;;11.43;6.13;;;30.80;47.60;;;;;;4705716;30;20065;-75
2021/07/19 12:39:46;;;;;;;13.48;5.97;;;31.00;48.20;;;;;;4710232;30;20057;-76
2021/07/19 12:42:15;;;;;;;11.15;5.95;;;31.40;46.70;;;;;;4707797;30;20037;-75
2021/07/19 12:44:44;;;;;;;15.30;5.85;;;31.40;47.20;;;;;;4710673;30;20043;-76
2021/07/19 12:47:10;;;;;;;15.20;5.78;;;31.40;46.60;;;;;;4710921;30;20050;-76
2021/07/19 12:49:40;;;;;;;16.10;6.47;;;31.50;46.40;;;;;;4711328;30;20096;-75
2021/07/19 12:52:30;;;;;;;11.90;6.32;;;31.40;47.70;;;;;;4710025;30;20041;-76
2021/07/19 12:55:10;;;;;;;18.73;6.68;;;31.10;48.10;;;;;;4693132;30;20056;-76
2021/07/19 12:57:41;;;;;;;13.45;6.18;;;31.30;48.70;;;;;;4692820;30;20365;-75
2021/07/19 13:00:11;;;;;;;16.10;5.75;;;31.40;47.50;;;;;;4692728;30;20280;-75
2021/07/19 13:02:38;;;;;;;11.50;5.55;;;31.70;47.70;;;;;;4677063;30;20736;-77
2021/07/19 13:05:07;;;;;;;12.80;5.95;;;31.80;45.00;;;;;;4691145;30;20040;-77
2021/07/19 13:07:33;;;;;;;14.73;6.55;;;31.60;46.20;;;;;;4676959;30;20222;-75
2021/07/19 13:10:02;;;;;;;21.70;7.07;;;31.40;45.70;;;;;;4691301;30;20044;-74
2021/07/19 13:12:28;;;;;;;15.07;6.68;;;31.20;45.90;;;;;;4691091;30;20038;-75
2021/07/19 13:14:59;;;;;;;12.00;6.65;;;31.20;46.00;;;;;;4676939;30;20536;-74
2021/07/19 13:17:27;;;;;;;12.88;6.00;;;31.40;47.40;;;;;;4678070;30;20101;-73
2021/07/19 13:20:05;;;;;;;15.90;7.18;;;31.60;46.00;;;;;;4691299;30;20057;-75
2021/07/19 13:22:35;;;;;;;12.55;6.55;;;31.90;46.90;;;;;;4689203;30;20034;-75
2021/07/19 13:25:04;;;;;;;17.25;7.05;;;32.00;46.60;;;;;;4691199;30;20157;-74
2021/07/19 13:27:42;;;;;;;15.10;7.30;;;32.10;47.40;;;;;;4691387;30;20064;-73
2021/07/19 13:30:10;;;;;;;12.60;6.57;;;32.00;45.40;;;;;;4680394;30;20096;-74
2021/07/19 13:32:36;;;;;;;16.52;7.22;;;32.10;44.20;;;;;;4706483;30;20167;-73
2021/07/19 13:35:08;;;;;;;12.77;7.30;;;32.20;45.00;;;;;;4710599;30;20114;-74
2021/07/19 13:37:34;;;;;;;16.13;7.85;;;31.90;44.10;;;;;;4710813;30;20033;-74
2021/07/19 13:40:09;;;;;;;12.52;6.85;;;31.90;44.40;;;;;;4709639;30;20372;-73
2021/07/19 13:42:36;;;;;;;16.42;8.10;;;31.80;44.10;;;;;;4707816;30;20044;-74
2021/07/19 13:45:03;;;;;;;13.35;6.93;;;31.70;45.30;;;;;;4708734;30;20033;-74
2021/07/19 13:47:28;;;;;;;17.27;7.10;;;31.70;46.20;;;;;;4719580;30;20061;-73
2021/07/19 13:49:54;;;;;;;13.73;6.40;;;31.90;46.40;;;;;;4707881;30;20093;-74
2021/07/19 13:52:20;;;;;;;12.47;7.50;;;31.90;45.00;;;;;;4708585;30;20295;-75
2021/07/19 13:54:45;;;;;;;20.73;7.07;;;31.80;44.20;;;;;;4709577;30;20128;-75
2021/07/19 13:57:11;;;;;;;16.07;7.20;;;31.90;46.20;;;;;;4705981;30;20037;-75
2021/07/19 13:59:38;;;;;;;15.30;7.53;;;32.10;45.80;;;;;;4708897;30;20104;-74
2021/07/19 14:02:05;;;;;;;12.38;6.50;;;32.20;43.70;;;;;;4703971;30;20393;-74
2021/07/19 14:04:32;;;;;;;10.95;7.60;;;32.20;43.30;;;;;;4718666;30;20088;-74
2021/07/19 14:06:58;;;;;;;12.60;6.82;;;32.20;43.50;;;;;;4703149;30;20072;-74
2021/07/19 14:09:25;;;;;;;10.88;7.60;;;32.10;43.50;;;;;;4704398;30;20038;-74
2021/07/19 14:11:51;;;;;;;10.88;6.82;;;32.20;42.90;;;;;;4710185;30;20029;-74
2021/07/19 14:14:17;;;;;;;16.58;8.25;;;32.10;42.80;;;;;;4710096;30;20045;-76
2021/07/19 14:16:43;;;;;;;17.00;8.13;;;32.00;42.80;;;;;;4706754;30;20037;-74
2021/07/19 14:19:09;;;;;;;16.77;7.33;;;32.10;44.00;;;;;;4699908;30;20321;-75
2021/07/19 14:21:36;;;;;;;13.40;7.82;;;32.20;43.00;;;;;;4706466;30;20104;-75
2021/07/19 14:24:03;;;;;;;16.70;7.70;;;32.30;41.90;;;;;;4702227;30;20033;-75
2021/07/19 14:26:30;;;;;;;15.13;8.40;;;32.20;43.00;;;;;;4702818;30;20087;-75
2021/07/19 14:28:57;;;;;;;18.58;8.05;;;32.20;41.80;;;;;;4703192;30;20202;-74
2021/07/19 14:31:27;;;;;;;14.30;7.60;;;32.30;42.60;;;;;;4704003;30;20100;-74
2021/07/19 14:33:53;;;;;;;13.43;8.20;;;32.40;42.90;;;;;;4699591;30;20105;-74
2021/07/19 14:36:21;;;;;;;15.55;7.35;;;32.20;41.20;;;;;;4700592;30;20030;-74
2021/07/19 14:38:47;;;;;;;16.95;7.32;;;31.80;40.50;;;;;;4703659;30;20041;-74
2021/07/19 14:41:13;;;;;;;11.27;7.33;;;31.50;41.30;;;;;;4701319;30;20057;-75
2021/07/19 14:43:38;;;;;;;15.03;8.03;;;31.30;42.50;;;;;;4700800;30;20041;-75
2021/07/19 14:46:12;;;;;;;14.40;8.27;;;31.20;42.10;;;;;;4700715;30;20300;-74
2021/07/19 14:48:38;;;;;;;18.35;7.78;;;31.40;42.20;;;;;;4707066;30;20056;-74
2021/07/19 14:51:06;;;;;;;15.00;6.50;;;31.50;41.40;;;;;;4706313;30;20052;-75
2021/07/19 14:53:33;;;;;;;12.50;6.32;;;31.60;42.30;;;;;;4708149;30;20081;-75
2021/07/19 14:56:00;;;;;;;12.07;6.55;;;31.60;41.70;;;;;;4709339;30;20037;-74
2021/07/19 14:58:26;;;;;;;18.00;7.38;;;31.60;42.00;;;;;;4708161;30;20174;-75
2021/07/19 15:00:52;;;;;;;12.38;6.82;;;31.80;43.20;;;;;;4706923;30;20036;-74
2021/07/19 15:03:18;;;;;;;14.20;6.50;;;31.90;42.20;;;;;;4693280;30;20116;-75
2021/07/19 15:05:44;;;;;;;15.18;7.57;;;31.90;42.90;;;;;;4709042;30;20038;-74
2021/07/19 15:08:10;;;;;;;12.27;6.37;;;31.80;43.20;;;;;;4709252;30;20037;-74
2021/07/19 15:10:36;;;;;;;13.87;6.13;;;31.90;43.30;;;;;;4707925;30;20048;-74
2021/07/19 15:13:02;;;;;;;17.53;6.87;;;31.90;42.90;;;;;;4693599;30;20332;-74
2021/07/19 15:15:28;;;;;;;11.70;6.30;;;31.90;43.00;;;;;;4707763;30;20037;-74
2021/07/19 15:17:54;;;;;;;12.43;7.00;;;31.90;42.80;;;;;;4702666;30;20177;-74
2021/07/19 15:20:20;;;;;;;10.65;5.85;;;32.00;43.90;;;;;;4706501;30;20040;-74
2021/07/19 15:22:47;;;;;;;11.13;5.63;;;32.10;44.80;;;;;;4706892;30;20061;-75
2021/07/19 15:25:13;;;;;;;14.88;6.10;;;32.10;43.90;;;;;;4689855;30;20041;-73
2021/07/19 15:27:40;;;;;;;16.73;6.25;;;32.20;45.80;;;;;;4693602;30;20034;-73
2021/07/19 15:30:11;;;;;;;11.02;5.70;;;32.30;43.40;;;;;;4719711;30;20038;-73
2021/07/19 15:32:38;;;;;;;14.80;5.07;;;32.00;42.90;;;;;;4709209;30;20029;-74
2021/07/19 15:35:05;;;;;;;12.23;5.97;;;31.70;44.90;;;;;;4706215;30;20036;-73